AMQ502 LBBG-EPKT
Flight info
| Callsign | AMQ502 |
|---|---|
| Flight time | 1h 37m |
| Altitude | 36000 |
| Route | BUVAK T777 BALIK L619 ARGES DCT MOBRA DCT PITOK DCT REDSI/N0444F370 DCT MEBAN |
| Aircraft | A320/M-SDE3FGHIRWY/LB1 |
Departure
| Time | 2026-05-06 22:28 |
|---|---|
| Airport | Burgas Airport (LBBG) |
Arrival
| Time | 2026-05-07 00:06 |
|---|---|
| Airport | Katowice Wojciech Korfanty International Airport (EPKT) |
| Time | Latitude | Longitude | Altitude | Speed | Heading |
|---|---|---|---|---|---|
| 2026-05-06 22:03 | 42.56557 | 27.51497 | 137 ft | 0 kts | 171° |
| 2026-05-06 22:20 | 42.56559 | 27.51497 | 137 ft | 1 kts | 171° |
| 2026-05-06 22:20 | 42.56577 | 27.51493 | 137 ft | 3 kts | 168° |
| 2026-05-06 22:21 | 42.56590 | 27.51489 | 137 ft | 1 kts | 169° |
| 2026-05-06 22:24 | 42.56579 | 27.51433 | 137 ft | 9 kts | 271° |
| 2026-05-06 22:24 | 42.56544 | 27.51373 | 136 ft | 8 kts | 226° |
| 2026-05-06 22:25 | 42.56508 | 27.51322 | 136 ft | 5 kts | 226° |
| 2026-05-06 22:25 | 42.56507 | 27.51320 | 136 ft | 2 kts | 226° |
| 2026-05-06 22:25 | 42.56460 | 27.51244 | 135 ft | 15 kts | 229° |
| 2026-05-06 22:25 | 42.56357 | 27.51091 | 133 ft | 21 kts | 227° |
| 2026-05-06 22:26 | 42.56260 | 27.50940 | 132 ft | 22 kts | 228° |
| 2026-05-06 22:26 | 42.56158 | 27.50787 | 128 ft | 21 kts | 228° |
| 2026-05-06 22:26 | 42.56058 | 27.50637 | 128 ft | 22 kts | 227° |
| 2026-05-06 22:26 | 42.55959 | 27.50488 | 125 ft | 18 kts | 227° |
| 2026-05-06 22:27 | 42.55892 | 27.50358 | 124 ft | 16 kts | 256° |
| 2026-05-06 22:27 | 42.55938 | 27.50239 | 122 ft | 14 kts | 317° |
| 2026-05-06 22:27 | 42.56019 | 27.50219 | 123 ft | 12 kts | 35° |
| 2026-05-06 22:27 | 42.56110 | 27.50322 | 123 ft | 28 kts | 42° |
| 2026-05-06 22:28 | 42.56416 | 27.50737 | 132 ft | 94 kts | 44° |
| 2026-05-06 22:28 | 42.57019 | 27.51531 | 143 ft | 147 kts | 44° |
| 2026-05-06 22:28 | 42.57818 | 27.52589 | 483 ft | 160 kts | 45° |
| 2026-05-06 22:28 | 42.58628 | 27.53547 | 1171 ft | 156 kts | 34° |
| 2026-05-06 22:29 | 42.59561 | 27.54317 | 1802 ft | 157 kts | 31° |
| 2026-05-06 22:29 | 42.60555 | 27.55077 | 2140 ft | 175 kts | 30° |
| 2026-05-06 22:29 | 42.61704 | 27.55876 | 2372 ft | 198 kts | 16° |
| 2026-05-06 22:29 | 42.63142 | 27.55788 | 2639 ft | 221 kts | 344° |
| 2026-05-06 22:30 | 42.64706 | 27.55203 | 3024 ft | 245 kts | 344° |
| 2026-05-06 22:30 | 42.66414 | 27.54575 | 3646 ft | 258 kts | 345° |
| 2026-05-06 22:30 | 42.68153 | 27.53955 | 4565 ft | 259 kts | 345° |
| 2026-05-06 22:30 | 42.69900 | 27.53354 | 5532 ft | 259 kts | 346° |
| 2026-05-06 22:31 | 42.71653 | 27.52769 | 6428 ft | 260 kts | 346° |
| 2026-05-06 22:31 | 42.73417 | 27.52187 | 7268 ft | 262 kts | 346° |
| 2026-05-06 22:31 | 42.75201 | 27.51603 | 8040 ft | 265 kts | 347° |
| 2026-05-06 22:31 | 42.77007 | 27.51009 | 8826 ft | 269 kts | 347° |
| 2026-05-06 22:32 | 42.78832 | 27.50409 | 9622 ft | 272 kts | 347° |
| 2026-05-06 22:32 | 42.80673 | 27.49803 | 10321 ft | 278 kts | 347° |
| 2026-05-06 22:32 | 42.82636 | 27.49160 | 10535 ft | 301 kts | 347° |
| 2026-05-06 22:32 | 42.84749 | 27.48471 | 10687 ft | 324 kts | 347° |
| 2026-05-06 22:33 | 42.87009 | 27.47732 | 11041 ft | 338 kts | 347° |
| 2026-05-06 22:33 | 42.89317 | 27.46977 | 11659 ft | 343 kts | 347° |
| 2026-05-06 22:33 | 42.91651 | 27.46210 | 12318 ft | 347 kts | 347° |
| 2026-05-06 22:33 | 42.94012 | 27.45431 | 13014 ft | 350 kts | 347° |
| 2026-05-06 22:34 | 42.96391 | 27.44647 | 13659 ft | 354 kts | 347° |
| 2026-05-06 22:34 | 42.98804 | 27.43860 | 14239 ft | 358 kts | 348° |
| 2026-05-06 22:34 | 43.01274 | 27.43327 | 14831 ft | 361 kts | 352° |
| 2026-05-06 22:34 | 43.03767 | 27.42833 | 15428 ft | 363 kts | 352° |
| 2026-05-06 22:35 | 43.06276 | 27.42334 | 16028 ft | 365 kts | 352° |
| 2026-05-06 22:35 | 43.08772 | 27.41839 | 16617 ft | 368 kts | 352° |
| 2026-05-06 22:35 | 43.11314 | 27.41336 | 17221 ft | 370 kts | 352° |
| 2026-05-06 22:35 | 43.13880 | 27.40825 | 17811 ft | 373 kts | 352° |
| 2026-05-06 22:36 | 43.16449 | 27.40312 | 18400 ft | 375 kts | 352° |
| 2026-05-06 22:36 | 43.19049 | 27.39794 | 18902 ft | 378 kts | 352° |
| 2026-05-06 22:36 | 43.21667 | 27.39271 | 19406 ft | 381 kts | 352° |
| 2026-05-06 22:36 | 43.24295 | 27.38742 | 19914 ft | 383 kts | 352° |
| 2026-05-06 22:37 | 43.26937 | 27.38212 | 20392 ft | 386 kts | 352° |
| 2026-05-06 22:37 | 43.29606 | 27.37680 | 20880 ft | 388 kts | 352° |
| 2026-05-06 22:37 | 43.32288 | 27.37144 | 21333 ft | 391 kts | 352° |
| 2026-05-06 22:37 | 43.34987 | 27.36604 | 21780 ft | 393 kts | 352° |
| 2026-05-06 22:38 | 43.37706 | 27.36064 | 22199 ft | 396 kts | 352° |
| 2026-05-06 22:38 | 43.40447 | 27.35518 | 22568 ft | 400 kts | 352° |
| 2026-05-06 22:38 | 43.43218 | 27.34964 | 22973 ft | 403 kts | 351° |
| 2026-05-06 22:38 | 43.45970 | 27.34411 | 23381 ft | 406 kts | 351° |
| 2026-05-06 22:39 | 43.48773 | 27.33842 | 23759 ft | 408 kts | 351° |
| 2026-05-06 22:39 | 43.51593 | 27.33268 | 24097 ft | 410 kts | 351° |
| 2026-05-06 22:39 | 43.54420 | 27.32695 | 24443 ft | 412 kts | 351° |
| 2026-05-06 22:39 | 43.57267 | 27.32118 | 24796 ft | 413 kts | 351° |
| 2026-05-06 22:40 | 43.60113 | 27.31538 | 25156 ft | 414 kts | 351° |
| 2026-05-06 22:40 | 43.62963 | 27.30956 | 25515 ft | 414 kts | 351° |
| 2026-05-06 22:40 | 43.65774 | 27.30050 | 25850 ft | 415 kts | 341° |
| 2026-05-06 22:40 | 43.68435 | 27.28491 | 26146 ft | 417 kts | 332° |
| 2026-05-06 22:41 | 43.73105 | 27.23733 | 26712 ft | 422 kts | 321° |
| 2026-05-06 22:41 | 43.75355 | 27.21119 | 27012 ft | 423 kts | 321° |
| 2026-05-06 22:41 | 43.77614 | 27.18495 | 27300 ft | 424 kts | 321° |
| 2026-05-06 22:42 | 43.79876 | 27.15866 | 27589 ft | 425 kts | 321° |
| 2026-05-06 22:42 | 43.82145 | 27.13225 | 27859 ft | 426 kts | 321° |
| 2026-05-06 22:42 | 43.84417 | 27.10574 | 28123 ft | 428 kts | 321° |
| 2026-05-06 22:42 | 43.86691 | 27.07915 | 28388 ft | 429 kts | 321° |
| 2026-05-06 22:43 | 43.88977 | 27.05241 | 28620 ft | 430 kts | 320° |
| 2026-05-06 22:43 | 43.91233 | 27.02601 | 28853 ft | 431 kts | 320° |
| 2026-05-06 22:43 | 43.93530 | 26.99915 | 29147 ft | 430 kts | 320° |
| 2026-05-06 22:43 | 43.95815 | 26.97244 | 29483 ft | 428 kts | 320° |
| 2026-05-06 22:44 | 43.98091 | 26.94585 | 29828 ft | 427 kts | 320° |
| 2026-05-06 22:44 | 44.00359 | 26.91936 | 30162 ft | 425 kts | 320° |
| 2026-05-06 22:44 | 44.02618 | 26.89292 | 30448 ft | 424 kts | 320° |
| 2026-05-06 22:44 | 44.04864 | 26.86653 | 30727 ft | 422 kts | 320° |
| 2026-05-06 22:45 | 44.07102 | 26.84018 | 30986 ft | 421 kts | 320° |
| 2026-05-06 22:45 | 44.09342 | 26.81394 | 31268 ft | 420 kts | 321° |
| 2026-05-06 22:45 | 44.11612 | 26.78855 | 31548 ft | 419 kts | 322° |
| 2026-05-06 22:45 | 44.13910 | 26.76375 | 31812 ft | 418 kts | 323° |
| 2026-05-06 22:46 | 44.16221 | 26.73923 | 32098 ft | 417 kts | 323° |
| 2026-05-06 22:46 | 44.18525 | 26.71479 | 32375 ft | 416 kts | 323° |
| 2026-05-06 22:46 | 44.20817 | 26.69031 | 32644 ft | 415 kts | 323° |
| 2026-05-06 22:46 | 44.23099 | 26.66573 | 32897 ft | 414 kts | 323° |
| 2026-05-06 22:47 | 44.25343 | 26.64136 | 33175 ft | 413 kts | 322° |
| 2026-05-06 22:47 | 44.27628 | 26.61640 | 33450 ft | 412 kts | 322° |
| 2026-05-06 22:47 | 44.29855 | 26.59197 | 33719 ft | 411 kts | 322° |
| 2026-05-06 22:47 | 44.32100 | 26.56734 | 33987 ft | 410 kts | 322° |
| 2026-05-06 22:48 | 44.34343 | 26.54276 | 34232 ft | 409 kts | 322° |
| 2026-05-06 22:48 | 44.36584 | 26.51823 | 34435 ft | 409 kts | 322° |
| 2026-05-06 22:48 | 44.38822 | 26.49372 | 34639 ft | 409 kts | 322° |
| 2026-05-06 22:48 | 44.41066 | 26.46912 | 34832 ft | 409 kts | 322° |
| 2026-05-06 22:49 | 44.43309 | 26.44453 | 35024 ft | 409 kts | 322° |
| 2026-05-06 22:49 | 44.45553 | 26.41990 | 35193 ft | 410 kts | 322° |
| 2026-05-06 22:49 | 44.47793 | 26.39528 | 35356 ft | 410 kts | 322° |
| 2026-05-06 22:49 | 44.50043 | 26.37053 | 35536 ft | 410 kts | 322° |
| 2026-05-06 22:50 | 44.52286 | 26.34583 | 35691 ft | 410 kts | 322° |
| 2026-05-06 22:50 | 44.54530 | 26.32111 | 35849 ft | 411 kts | 322° |
| 2026-05-06 22:50 | 44.56748 | 26.29661 | 36009 ft | 411 kts | 322° |
| 2026-05-06 22:51 | 44.61251 | 26.24670 | 36085 ft | 413 kts | 322° |
| 2026-05-06 22:51 | 44.65766 | 26.19662 | 36084 ft | 413 kts | 322° |
| 2026-05-06 22:52 | 44.70280 | 26.14651 | 36081 ft | 414 kts | 322° |
| 2026-05-06 22:52 | 44.74792 | 26.09623 | 36077 ft | 414 kts | 322° |
| 2026-05-06 22:53 | 44.79302 | 26.04590 | 36076 ft | 414 kts | 322° |
| 2026-05-06 22:53 | 44.83820 | 25.99556 | 36076 ft | 414 kts | 322° |
| 2026-05-06 22:54 | 44.88329 | 25.94508 | 36072 ft | 414 kts | 321° |
| 2026-05-06 22:54 | 44.92811 | 25.89481 | 36073 ft | 414 kts | 321° |
| 2026-05-06 22:55 | 44.97310 | 25.84413 | 36079 ft | 414 kts | 321° |
| 2026-05-06 22:55 | 45.01813 | 25.79335 | 36095 ft | 414 kts | 321° |
| 2026-05-06 22:56 | 45.06317 | 25.74268 | 36092 ft | 414 kts | 321° |
| 2026-05-06 22:56 | 45.10819 | 25.69176 | 36090 ft | 414 kts | 321° |
| 2026-05-06 22:57 | 45.15306 | 25.64073 | 36091 ft | 414 kts | 321° |
| 2026-05-06 22:57 | 45.19773 | 25.58994 | 36085 ft | 414 kts | 321° |
| 2026-05-06 22:58 | 45.24294 | 25.53857 | 36091 ft | 414 kts | 321° |
| 2026-05-06 22:58 | 45.28757 | 25.48769 | 36076 ft | 414 kts | 320° |
| 2026-05-06 22:59 | 45.33243 | 25.43626 | 36080 ft | 415 kts | 321° |
| 2026-05-06 22:59 | 45.37738 | 25.38471 | 36077 ft | 415 kts | 321° |
| 2026-05-06 23:00 | 45.42240 | 25.33311 | 36066 ft | 415 kts | 321° |
| 2026-05-06 23:00 | 45.46707 | 25.28173 | 36069 ft | 415 kts | 320° |
| 2026-05-06 23:01 | 45.51202 | 25.22991 | 36061 ft | 416 kts | 320° |
| 2026-05-06 23:01 | 45.55704 | 25.17797 | 36050 ft | 416 kts | 320° |
| 2026-05-06 23:02 | 45.60204 | 25.12584 | 36061 ft | 417 kts | 320° |
| 2026-05-06 23:02 | 45.64703 | 25.07350 | 36063 ft | 417 kts | 320° |
| 2026-05-06 23:03 | 45.69206 | 25.02113 | 36039 ft | 417 kts | 320° |
| 2026-05-06 23:03 | 45.73718 | 24.96863 | 36039 ft | 418 kts | 320° |
| 2026-05-06 23:04 | 45.78196 | 24.91635 | 36031 ft | 418 kts | 320° |
| 2026-05-06 23:04 | 45.82709 | 24.86349 | 36031 ft | 419 kts | 320° |
| 2026-05-06 23:05 | 45.87098 | 24.80864 | 36027 ft | 418 kts | 311° |
| 2026-05-06 23:05 | 45.90881 | 24.74545 | 36034 ft | 419 kts | 310° |
| 2026-05-06 23:06 | 45.94673 | 24.68201 | 36019 ft | 419 kts | 310° |
| 2026-05-06 23:06 | 45.98466 | 24.61834 | 36018 ft | 420 kts | 310° |
| 2026-05-06 23:07 | 46.02261 | 24.55455 | 36022 ft | 420 kts | 310° |
| 2026-05-06 23:07 | 46.06050 | 24.49046 | 36008 ft | 421 kts | 309° |
| 2026-05-06 23:08 | 46.09850 | 24.42621 | 36006 ft | 422 kts | 309° |
| 2026-05-06 23:08 | 46.13667 | 24.36172 | 36002 ft | 423 kts | 309° |
| 2026-05-06 23:09 | 46.17482 | 24.29690 | 36010 ft | 424 kts | 308° |
| 2026-05-06 23:09 | 46.21299 | 24.23185 | 36010 ft | 424 kts | 308° |
| 2026-05-06 23:10 | 46.25109 | 24.16674 | 36015 ft | 424 kts | 308° |
| 2026-05-06 23:10 | 46.28894 | 24.10207 | 36011 ft | 425 kts | 308° |
| 2026-05-06 23:11 | 46.32701 | 24.03665 | 36012 ft | 425 kts | 308° |
| 2026-05-06 23:11 | 46.36506 | 23.97122 | 36007 ft | 424 kts | 308° |
| 2026-05-06 23:12 | 46.39671 | 23.91683 | 36010 ft | 425 kts | 308° |
| 2026-05-06 23:12 | 46.43482 | 23.85122 | 36008 ft | 426 kts | 308° |
| 2026-05-06 23:13 | 46.47284 | 23.78531 | 36008 ft | 426 kts | 308° |
| 2026-05-06 23:13 | 46.51095 | 23.71924 | 36010 ft | 426 kts | 308° |
| 2026-05-06 23:14 | 46.54903 | 23.65308 | 36017 ft | 427 kts | 308° |
| 2026-05-06 23:14 | 46.58707 | 23.58672 | 35999 ft | 428 kts | 307° |
| 2026-05-06 23:15 | 46.62514 | 23.52010 | 36007 ft | 428 kts | 307° |
| 2026-05-06 23:15 | 46.66316 | 23.45341 | 36009 ft | 428 kts | 307° |
| 2026-05-06 23:16 | 46.70090 | 23.38711 | 36027 ft | 428 kts | 307° |
| 2026-05-06 23:16 | 46.73889 | 23.32024 | 36029 ft | 428 kts | 307° |
| 2026-05-06 23:17 | 46.77695 | 23.25305 | 36019 ft | 429 kts | 307° |
| 2026-05-06 23:17 | 46.81496 | 23.18589 | 36012 ft | 429 kts | 307° |
| 2026-05-06 23:18 | 46.85292 | 23.11876 | 36010 ft | 429 kts | 307° |
| 2026-05-06 23:18 | 46.89086 | 23.05131 | 36010 ft | 430 kts | 306° |
| 2026-05-06 23:19 | 46.92876 | 22.98356 | 35990 ft | 431 kts | 306° |
| 2026-05-06 23:19 | 46.96685 | 22.91554 | 36000 ft | 432 kts | 306° |
| 2026-05-06 23:20 | 47.00494 | 22.84739 | 35998 ft | 432 kts | 306° |
| 2026-05-06 23:20 | 47.04289 | 22.77913 | 35995 ft | 432 kts | 306° |
| 2026-05-06 23:21 | 47.08066 | 22.71107 | 35987 ft | 433 kts | 306° |
| 2026-05-06 23:21 | 47.11881 | 22.64241 | 35980 ft | 434 kts | 306° |
| 2026-05-06 23:22 | 47.15703 | 22.57348 | 35974 ft | 435 kts | 306° |
| 2026-05-06 23:22 | 47.19524 | 22.50434 | 35969 ft | 436 kts | 306° |
| 2026-05-06 23:23 | 47.23334 | 22.43496 | 35983 ft | 436 kts | 306° |
| 2026-05-06 23:23 | 47.27122 | 22.36577 | 35965 ft | 437 kts | 306° |
| 2026-05-06 23:24 | 47.30935 | 22.29604 | 35960 ft | 437 kts | 306° |
| 2026-05-06 23:24 | 47.34753 | 22.22611 | 35955 ft | 438 kts | 306° |
| 2026-05-06 23:25 | 47.38569 | 22.15612 | 35959 ft | 438 kts | 306° |
| 2026-05-06 23:25 | 47.42392 | 22.08582 | 35960 ft | 438 kts | 306° |
| 2026-05-06 23:26 | 47.46174 | 22.01574 | 35955 ft | 438 kts | 305° |
| 2026-05-06 23:26 | 47.49974 | 21.94505 | 35951 ft | 439 kts | 305° |
| 2026-05-06 23:27 | 47.53775 | 21.87443 | 35950 ft | 438 kts | 305° |
| 2026-05-06 23:27 | 47.57565 | 21.80385 | 35956 ft | 439 kts | 305° |
| 2026-05-06 23:28 | 47.61369 | 21.73308 | 35950 ft | 439 kts | 305° |
| 2026-05-06 23:28 | 47.65174 | 21.66227 | 35945 ft | 439 kts | 305° |
| 2026-05-06 23:29 | 47.68967 | 21.59132 | 35942 ft | 439 kts | 305° |
| 2026-05-06 23:29 | 47.72748 | 21.52026 | 35932 ft | 438 kts | 305° |
| 2026-05-06 23:30 | 47.76519 | 21.44908 | 35937 ft | 438 kts | 305° |
| 2026-05-06 23:30 | 47.80290 | 21.37780 | 35932 ft | 438 kts | 305° |
| 2026-05-06 23:31 | 47.84032 | 21.30689 | 35932 ft | 438 kts | 305° |
| 2026-05-06 23:31 | 47.87796 | 21.23542 | 35928 ft | 439 kts | 305° |
| 2026-05-06 23:32 | 47.91558 | 21.16381 | 35928 ft | 439 kts | 305° |
| 2026-05-06 23:32 | 47.95319 | 21.09214 | 35926 ft | 439 kts | 305° |
| 2026-05-06 23:33 | 47.99071 | 21.02034 | 35926 ft | 438 kts | 304° |
| 2026-05-06 23:33 | 48.02807 | 20.94834 | 35921 ft | 438 kts | 304° |
| 2026-05-06 23:34 | 48.06547 | 20.87631 | 35925 ft | 438 kts | 304° |
| 2026-05-06 23:34 | 48.10285 | 20.80433 | 35935 ft | 438 kts | 304° |
| 2026-05-06 23:35 | 48.13987 | 20.73261 | 35933 ft | 438 kts | 304° |
| 2026-05-06 23:35 | 48.17716 | 20.66027 | 35927 ft | 438 kts | 304° |
| 2026-05-06 23:36 | 48.21437 | 20.58803 | 35927 ft | 438 kts | 304° |
| 2026-05-06 23:36 | 48.25161 | 20.51540 | 35943 ft | 438 kts | 304° |
| 2026-05-06 23:37 | 48.28859 | 20.44294 | 35938 ft | 437 kts | 304° |
| 2026-05-06 23:37 | 48.32935 | 20.37490 | 35933 ft | 443 kts | 317° |
| 2026-05-06 23:38 | 48.38229 | 20.32612 | 35937 ft | 449 kts | 329° |
| 2026-05-06 23:38 | 48.43767 | 20.28263 | 35929 ft | 449 kts | 328° |
| 2026-05-06 23:39 | 48.49297 | 20.23865 | 35940 ft | 449 kts | 328° |
| 2026-05-06 23:39 | 48.54789 | 20.19492 | 35936 ft | 449 kts | 328° |
| 2026-05-06 23:40 | 48.60316 | 20.15076 | 35938 ft | 449 kts | 328° |
| 2026-05-06 23:40 | 48.65839 | 20.10650 | 35948 ft | 449 kts | 328° |
| 2026-05-06 23:41 | 48.71358 | 20.06218 | 35939 ft | 449 kts | 328° |
| 2026-05-06 23:41 | 48.76846 | 20.01802 | 35925 ft | 449 kts | 328° |
| 2026-05-06 23:42 | 48.82363 | 19.97361 | 35929 ft | 449 kts | 328° |
| 2026-05-06 23:42 | 48.87880 | 19.92909 | 35847 ft | 450 kts | 328° |
| 2026-05-06 23:42 | 48.90644 | 19.90671 | 35510 ft | 450 kts | 328° |
| 2026-05-06 23:43 | 48.93409 | 19.88429 | 35013 ft | 450 kts | 328° |
| 2026-05-06 23:43 | 48.96172 | 19.86186 | 34518 ft | 451 kts | 328° |
| 2026-05-06 23:43 | 48.98945 | 19.83931 | 34030 ft | 452 kts | 328° |
| 2026-05-06 23:43 | 49.01727 | 19.81668 | 33497 ft | 453 kts | 328° |
| 2026-05-06 23:44 | 49.04511 | 19.79399 | 32954 ft | 455 kts | 328° |
| 2026-05-06 23:44 | 49.07300 | 19.77120 | 32420 ft | 457 kts | 328° |
| 2026-05-06 23:44 | 49.10104 | 19.74825 | 31898 ft | 458 kts | 328° |
| 2026-05-06 23:44 | 49.12921 | 19.72517 | 31381 ft | 460 kts | 328° |
| 2026-05-06 23:45 | 49.15746 | 19.70199 | 30875 ft | 462 kts | 328° |
| 2026-05-06 23:45 | 49.18582 | 19.67871 | 30386 ft | 464 kts | 327° |
| 2026-05-06 23:45 | 49.21530 | 19.65787 | 29875 ft | 471 kts | 336° |
| 2026-05-06 23:45 | 49.24720 | 19.64491 | 29243 ft | 477 kts | 347° |
| 2026-05-06 23:46 | 49.28046 | 19.64085 | 28621 ft | 483 kts | 358° |
| 2026-05-06 23:46 | 49.31412 | 19.64193 | 28023 ft | 483 kts | 359° |
| 2026-05-06 23:46 | 49.34758 | 19.64316 | 27432 ft | 479 kts | 359° |
| 2026-05-06 23:46 | 49.38080 | 19.64440 | 26858 ft | 475 kts | 359° |
| 2026-05-06 23:47 | 49.41324 | 19.64938 | 26298 ft | 473 kts | 10° |
| 2026-05-06 23:47 | 49.44467 | 19.66377 | 25743 ft | 471 kts | 21° |
| 2026-05-06 23:47 | 49.47356 | 19.68694 | 25190 ft | 468 kts | 33° |
| 2026-05-06 23:47 | 49.49878 | 19.71797 | 24672 ft | 463 kts | 45° |
| 2026-05-06 23:48 | 49.52143 | 19.75302 | 24156 ft | 459 kts | 46° |
| 2026-05-06 23:48 | 49.54341 | 19.78842 | 23644 ft | 455 kts | 47° |
| 2026-05-06 23:48 | 49.56494 | 19.82395 | 23083 ft | 451 kts | 47° |
| 2026-05-06 23:48 | 49.58617 | 19.85934 | 22487 ft | 447 kts | 48° |
| 2026-05-06 23:49 | 49.60879 | 19.89196 | 21878 ft | 444 kts | 36° |
| 2026-05-06 23:49 | 49.63556 | 19.91555 | 20597 ft | 445 kts | 20° |
| 2026-05-06 23:49 | 49.66556 | 19.92612 | 19257 ft | 441 kts | 1° |
| 2026-05-06 23:49 | 49.69569 | 19.92324 | 18234 ft | 428 kts | 345° |
| 2026-05-06 23:50 | 49.72295 | 19.90927 | 17856 ft | 399 kts | 333° |
| 2026-05-06 23:50 | 49.77186 | 19.87604 | 16215 ft | 382 kts | 332° |
| 2026-05-06 23:50 | 49.79584 | 19.85971 | 15497 ft | 373 kts | 332° |
| 2026-05-06 23:51 | 49.81950 | 19.84353 | 14569 ft | 370 kts | 332° |
| 2026-05-06 23:51 | 49.84300 | 19.82734 | 13700 ft | 367 kts | 331° |
| 2026-05-06 23:51 | 49.86619 | 19.81133 | 12795 ft | 363 kts | 331° |
| 2026-05-06 23:51 | 49.88870 | 19.79576 | 12068 ft | 355 kts | 331° |
| 2026-05-06 23:52 | 49.91081 | 19.78042 | 11498 ft | 342 kts | 330° |
| 2026-05-06 23:52 | 49.93185 | 19.76583 | 11209 ft | 323 kts | 330° |
| 2026-05-06 23:52 | 49.95206 | 19.75175 | 10662 ft | 315 kts | 330° |
| 2026-05-06 23:52 | 49.97170 | 19.73801 | 10241 ft | 304 kts | 329° |
| 2026-05-06 23:53 | 49.99084 | 19.72457 | 9688 ft | 300 kts | 329° |
| 2026-05-06 23:53 | 50.00975 | 19.71127 | 9039 ft | 297 kts | 329° |
| 2026-05-06 23:53 | 50.02850 | 19.69810 | 8388 ft | 295 kts | 329° |
| 2026-05-06 23:53 | 50.04715 | 19.68503 | 7710 ft | 293 kts | 329° |
| 2026-05-06 23:54 | 50.06571 | 19.67200 | 7038 ft | 292 kts | 328° |
| 2026-05-06 23:54 | 50.08416 | 19.65902 | 6362 ft | 290 kts | 328° |
| 2026-05-06 23:54 | 50.10251 | 19.64614 | 5671 ft | 288 kts | 328° |
| 2026-05-06 23:54 | 50.12030 | 19.63380 | 5375 ft | 272 kts | 328° |
| 2026-05-06 23:55 | 50.13740 | 19.62192 | 4854 ft | 266 kts | 328° |
| 2026-05-06 23:55 | 50.15410 | 19.61018 | 4348 ft | 261 kts | 329° |
| 2026-05-06 23:55 | 50.17048 | 19.59864 | 4056 ft | 257 kts | 329° |
| 2026-05-06 23:55 | 50.18646 | 19.58740 | 4004 ft | 240 kts | 329° |
| 2026-05-06 23:56 | 50.20119 | 19.57713 | 4018 ft | 226 kts | 328° |
| 2026-05-06 23:56 | 50.21526 | 19.56722 | 4073 ft | 219 kts | 327° |
| 2026-05-06 23:56 | 50.22892 | 19.55755 | 4035 ft | 212 kts | 327° |
| 2026-05-06 23:56 | 50.24218 | 19.54812 | 4026 ft | 209 kts | 327° |
| 2026-05-06 23:57 | 50.25536 | 19.53871 | 4022 ft | 208 kts | 327° |
| 2026-05-06 23:57 | 50.26853 | 19.52932 | 4023 ft | 208 kts | 327° |
| 2026-05-06 23:57 | 50.28175 | 19.51992 | 4028 ft | 209 kts | 327° |
| 2026-05-06 23:57 | 50.29497 | 19.51053 | 4021 ft | 209 kts | 327° |
| 2026-05-06 23:58 | 50.30822 | 19.50114 | 4016 ft | 209 kts | 327° |
| 2026-05-06 23:58 | 50.32145 | 19.49176 | 4020 ft | 209 kts | 327° |
| 2026-05-06 23:58 | 50.33452 | 19.48245 | 4012 ft | 209 kts | 327° |
| 2026-05-06 23:58 | 50.34776 | 19.47300 | 4010 ft | 209 kts | 327° |
| 2026-05-06 23:59 | 50.36103 | 19.46355 | 4022 ft | 209 kts | 327° |
| 2026-05-06 23:59 | 50.37425 | 19.45416 | 4021 ft | 209 kts | 327° |
| 2026-05-06 23:59 | 50.38749 | 19.44476 | 4019 ft | 209 kts | 327° |
| 2026-05-06 23:59 | 50.40070 | 19.43535 | 4001 ft | 208 kts | 326° |
| 2026-05-07 00:00 | 50.41388 | 19.42595 | 4003 ft | 207 kts | 327° |
| 2026-05-07 00:00 | 50.42697 | 19.41665 | 4017 ft | 206 kts | 327° |
| 2026-05-07 00:00 | 50.44004 | 19.40735 | 4012 ft | 206 kts | 327° |
| 2026-05-07 00:00 | 50.44869 | 19.40120 | 4012 ft | 206 kts | 327° |
| 2026-05-07 00:01 | 50.46147 | 19.39122 | 4012 ft | 201 kts | 315° |
| 2026-05-07 00:01 | 50.47067 | 19.37592 | 4012 ft | 187 kts | 290° |
| 2026-05-07 00:01 | 50.47479 | 19.35739 | 3905 ft | 173 kts | 268° |
| 2026-05-07 00:01 | 50.47507 | 19.33946 | 3815 ft | 157 kts | 262° |
| 2026-05-07 00:02 | 50.47516 | 19.32307 | 3715 ft | 146 kts | 262° |
| 2026-05-07 00:02 | 50.47520 | 19.30677 | 3560 ft | 152 kts | 262° |
| 2026-05-07 00:02 | 50.47527 | 19.29006 | 3373 ft | 153 kts | 262° |
| 2026-05-07 00:02 | 50.47535 | 19.27346 | 3176 ft | 149 kts | 262° |
| 2026-05-07 00:03 | 50.47543 | 19.25769 | 2986 ft | 140 kts | 261° |
| 2026-05-07 00:03 | 50.47549 | 19.24252 | 2800 ft | 138 kts | 262° |
| 2026-05-07 00:03 | 50.47554 | 19.22752 | 2623 ft | 137 kts | 261° |
| 2026-05-07 00:03 | 50.47559 | 19.21272 | 2442 ft | 135 kts | 261° |
| 2026-05-07 00:04 | 50.47564 | 19.19791 | 2265 ft | 136 kts | 262° |
| 2026-05-07 00:04 | 50.47569 | 19.18306 | 2082 ft | 136 kts | 262° |
| 2026-05-07 00:04 | 50.47574 | 19.16818 | 1890 ft | 136 kts | 263° |
| 2026-05-07 00:04 | 50.47578 | 19.15318 | 1712 ft | 140 kts | 266° |
| 2026-05-07 00:05 | 50.47584 | 19.13769 | 1526 ft | 143 kts | 266° |
| 2026-05-07 00:05 | 50.47590 | 19.12210 | 1308 ft | 143 kts | 267° |
| 2026-05-07 00:05 | 50.47592 | 19.10659 | 1107 ft | 142 kts | 268° |
| 2026-05-07 00:05 | 50.47600 | 19.09144 | 1005 ft | 130 kts | 268° |
| 2026-05-07 00:06 | 50.47602 | 19.07968 | 988 ft | 85 kts | 270° |
| 2026-05-07 00:06 | 50.47592 | 19.07289 | 991 ft | 42 kts | 268° |
| 2026-05-07 00:06 | 50.47542 | 19.07000 | 983 ft | 17 kts | 241° |
| 2026-05-07 00:06 | 50.47524 | 19.06949 | 991 ft | 0 kts | 242° |
| 2026-05-07 00:08 | 50.47524 | 19.06948 | 991 ft | 1 kts | 242° |
| 2026-05-07 00:09 | 50.47505 | 19.06889 | 987 ft | 9 kts | 242° |
| 2026-05-07 00:09 | 50.47466 | 19.06785 | 983 ft | 17 kts | 239° |
| 2026-05-07 00:09 | 50.47383 | 19.06630 | 980 ft | 19 kts | 196° |
| 2026-05-07 00:09 | 50.47316 | 19.06628 | 989 ft | 0 kts | 182° |
| 2026-05-07 00:10 | 50.47315 | 19.06628 | 989 ft | 0 kts | 182° |
| 2026-05-07 00:10 | 50.47271 | 19.06628 | 980 ft | 10 kts | 177° |
| 2026-05-07 00:10 | 50.47242 | 19.06704 | 981 ft | 10 kts | 86° |
| 2026-05-07 00:11 | 50.47241 | 19.06793 | 981 ft | 0 kts | 94° |
| 2026-05-07 00:11 | 50.47238 | 19.06834 | 982 ft | 7 kts | 95° |
| 2026-05-07 00:11 | 50.47235 | 19.06944 | 986 ft | 20 kts | 91° |
| 2026-05-07 00:11 | 50.47234 | 19.07150 | 987 ft | 14 kts | 91° |
| 2026-05-07 00:12 | 50.47230 | 19.07255 | 993 ft | 7 kts | 110° |
| 2026-05-07 00:12 | 50.47198 | 19.07267 | 988 ft | 4 kts | 181° |
| 2026-05-07 00:12 | 50.47178 | 19.07268 | 985 ft | 2 kts | 182° |
| 2026-05-07 00:12 | 50.47176 | 19.07267 | 985 ft | 0 kts | 182° |